Time;durP1;ratioP1;P1;durP2;ratioP2;P2;SDS_P1;SDS_P2;PMS_P1;PMS_P2;Temp;Humidity;BMP_temperature;BMP_pressure;BME280_temperature;BME280_humidity;BME280_pressure;Samples;Min_cycle;Max_cycle;Signal;HPM_P1;HPM_P2
2023/07/01 00:02:16;;;;;;;6.93;2.33;;;17.20;99.90;;;;;;5030159;28;20438;-79
2023/07/01 00:04:41;;;;;;;5.97;2.33;;;17.20;99.90;;;;;;5029389;28;20479;-80
2023/07/01 00:07:07;;;;;;;6.00;2.13;;;17.20;99.90;;;;;;5046316;28;20175;-80
2023/07/01 00:09:33;;;;;;;8.00;2.72;;;17.20;99.90;;;;;;5066124;28;20040;-79
2023/07/01 00:11:59;;;;;;;6.05;2.30;;;17.20;99.90;;;;;;5025348;28;20457;-79
2023/07/01 00:14:24;;;;;;;7.10;2.40;;;17.20;99.90;;;;;;5023983;28;20037;-80
2023/07/01 00:16:50;;;;;;;8.32;2.45;;;17.20;99.90;;;;;;5038130;28;20044;-79
2023/07/01 00:19:16;;;;;;;8.93;2.50;;;17.30;99.90;;;;;;5034398;28;20069;-80
2023/07/01 00:21:41;;;;;;;7.30;2.53;;;17.30;99.90;;;;;;5028420;28;20135;-80
2023/07/01 00:24:07;;;;;;;8.20;2.50;;;17.30;99.90;;;;;;5029988;28;20431;-79
2023/07/01 00:26:33;;;;;;;4.80;2.30;;;17.20;99.90;;;;;;5028047;28;20282;-79
2023/07/01 00:28:59;;;;;;;6.80;2.05;;;17.30;99.90;;;;;;5040860;28;20288;-79
2023/07/01 00:31:25;;;;;;;10.23;2.58;;;17.30;99.90;;;;;;5040570;28;20046;-80
2023/07/01 00:33:50;;;;;;;6.47;2.42;;;17.30;99.90;;;;;;5036108;28;20112;-80
2023/07/01 00:36:16;;;;;;;7.22;2.50;;;17.30;99.90;;;;;;5052098;28;20119;-80
2023/07/01 00:38:42;;;;;;;5.70;2.25;;;17.30;99.90;;;;;;5047797;28;20036;-80
2023/07/01 00:41:07;;;;;;;8.52;2.50;;;17.30;99.90;;;;;;5022719;28;20056;-79
2023/07/01 00:43:33;;;;;;;5.60;2.28;;;17.30;99.90;;;;;;5065115;28;20072;-79
2023/07/01 00:45:58;;;;;;;5.10;2.17;;;17.30;99.90;;;;;;5040599;28;20051;-80
2023/07/01 00:48:26;;;;;;;9.93;2.75;;;17.30;99.90;;;;;;5036095;28;20033;-79
2023/07/01 00:50:53;;;;;;;6.43;2.38;;;17.30;99.90;;;;;;5067267;28;20044;-80
2023/07/01 00:53:19;;;;;;;6.65;2.40;;;17.30;99.90;;;;;;5054427;28;20139;-80
2023/07/01 00:55:45;;;;;;;5.65;2.47;;;17.30;99.90;;;;;;5043479;28;20051;-79
2023/07/01 00:58:10;;;;;;;5.63;2.63;;;17.30;99.90;;;;;;5022391;28;20036;-80
2023/07/01 01:00:36;;;;;;;3.95;2.30;;;17.30;99.90;;;;;;5024503;28;20174;-80
2023/07/01 01:03:28;;;;;;;7.07;2.60;;;17.30;99.90;;;;;;5023651;28;20431;-80
2023/07/01 01:06:12;;;;;;;5.53;2.40;;;17.30;99.90;;;;;;5032620;28;20416;-80
2023/07/01 01:09:10;;;;;;;7.38;2.60;;;17.30;99.90;;;;;;5039222;28;20140;-79
2023/07/01 01:11:45;;;;;;;5.65;2.35;;;17.30;99.90;;;;;;5027080;28;20051;-80
2023/07/01 01:14:13;;;;;;;4.78;2.38;;;17.30;99.90;;;;;;5037525;28;20044;-80
2023/07/01 01:16:40;;;;;;;6.55;2.58;;;17.30;99.90;;;;;;5033322;28;20044;-80
2023/07/01 01:19:20;;;;;;;5.57;2.72;;;17.30;99.90;;;;;;5035893;28;20619;-80
2023/07/01 01:21:55;;;;;;;7.13;2.13;;;17.30;99.90;;;;;;5047546;28;20528;-79
2023/07/01 01:24:24;;;;;;;10.98;3.38;;;17.30;99.90;;;;;;5021974;28;20041;-80
2023/07/01 01:26:55;;;;;;;11.50;2.63;;;17.30;99.90;;;;;;5030432;28;20632;-80
2023/07/01 01:29:21;;;;;;;5.65;2.28;;;17.30;99.90;;;;;;5049650;28;20089;-79
2023/07/01 01:31:47;;;;;;;7.45;2.60;;;17.30;99.90;;;;;;5021185;28;20070;-80
2023/07/01 01:34:16;;;;;;;6.53;2.28;;;17.30;99.90;;;;;;5019505;28;20032;-79
2023/07/01 01:36:52;;;;;;;4.88;2.42;;;17.30;99.90;;;;;;5049389;28;20352;-79
2023/07/01 01:39:25;;;;;;;5.88;2.60;;;17.30;99.90;;;;;;5047720;28;20566;-80
2023/07/01 01:41:57;;;;;;;8.05;2.60;;;17.20;99.90;;;;;;5067199;28;20512;-80
2023/07/01 01:44:47;;;;;;;6.50;2.60;;;17.20;99.90;;;;;;5064926;28;20564;-79
2023/07/01 01:47:20;;;;;;;8.50;2.65;;;17.20;99.90;;;;;;5066179;28;20044;-79
2023/07/01 01:49:48;;;;;;;7.15;3.17;;;17.10;99.90;;;;;;5034254;28;20060;-80
2023/07/01 01:52:15;;;;;;;5.97;2.85;;;17.00;99.90;;;;;;5064742;28;20116;-80
2023/07/01 01:54:46;;;;;;;7.13;3.10;;;16.90;99.90;;;;;;5038886;28;20446;-80
2023/07/01 01:57:14;;;;;;;6.10;3.28;;;16.80;99.90;;;;;;5042882;28;20078;-81
2023/07/01 01:59:41;;;;;;;9.52;3.50;;;16.70;99.90;;;;;;5036309;28;20119;-81
2023/07/01 02:02:07;;;;;;;8.20;3.80;;;16.50;99.90;;;;;;5038811;28;20122;-80
2023/07/01 02:04:32;;;;;;;7.88;3.67;;;16.30;99.90;;;;;;5049579;28;20732;-81
2023/07/01 02:06:58;;;;;;;7.47;3.45;;;16.30;99.90;;;;;;5040032;28;20057;-80
2023/07/01 02:09:24;;;;;;;10.05;3.75;;;16.20;99.90;;;;;;5035156;28;20105;-80
2023/07/01 02:11:49;;;;;;;6.38;3.92;;;16.20;99.90;;;;;;5066375;28;20605;-80
2023/07/01 02:14:15;;;;;;;6.93;3.58;;;16.30;99.90;;;;;;5024827;28;20040;-80
2023/07/01 02:16:40;;;;;;;6.65;3.40;;;16.30;99.90;;;;;;5037965;28;20109;-80
2023/07/01 02:19:06;;;;;;;6.50;3.40;;;16.20;99.90;;;;;;5026051;28;20055;-80
2023/07/01 02:21:33;;;;;;;5.85;3.58;;;16.30;99.90;;;;;;5062723;28;20689;-80
2023/07/01 02:23:58;;;;;;;6.90;3.53;;;16.30;99.90;;;;;;5065465;28;20049;-80
2023/07/01 02:26:24;;;;;;;8.35;3.58;;;16.40;99.90;;;;;;5042132;28;20124;-80
2023/07/01 02:28:50;;;;;;;7.88;3.88;;;16.50;99.90;;;;;;5032884;28;20510;-80
2023/07/01 02:31:18;;;;;;;5.80;3.60;;;16.50;99.90;;;;;;5031242;28;20536;-80
2023/07/01 02:33:44;;;;;;;9.30;3.80;;;16.50;99.90;;;;;;5051775;28;20082;-80
2023/07/01 02:36:10;;;;;;;7.85;3.83;;;16.50;99.90;;;;;;5066071;28;20048;-79
2023/07/01 02:38:36;;;;;;;7.78;3.50;;;16.50;99.90;;;;;;5038635;28;20475;-80
2023/07/01 02:41:01;;;;;;;7.95;3.70;;;16.60;99.90;;;;;;5023816;28;20143;-79
2023/07/01 02:43:27;;;;;;;6.90;3.63;;;16.60;99.90;;;;;;5067815;28;20060;-80
2023/07/01 02:45:53;;;;;;;9.18;4.03;;;16.70;99.90;;;;;;5037745;28;20032;-80
2023/07/01 02:48:18;;;;;;;6.38;4.57;;;16.60;99.90;;;;;;5036529;28;20043;-80
2023/07/01 02:50:44;;;;;;;7.03;4.53;;;16.70;99.90;;;;;;5039939;28;20226;-79
2023/07/01 02:53:10;;;;;;;12.05;5.15;;;16.70;99.90;;;;;;5037679;28;20039;-80
2023/07/01 02:55:36;;;;;;;7.18;5.07;;;16.60;99.90;;;;;;5038201;28;20044;-80
2023/07/01 02:58:02;;;;;;;8.68;4.65;;;16.50;99.90;;;;;;5039940;28;20107;-79
2023/07/01 03:00:28;;;;;;;7.93;5.03;;;16.50;99.90;;;;;;5050623;28;20049;-80
2023/07/01 03:02:53;;;;;;;11.95;5.10;;;16.40;99.90;;;;;;5033317;28;20142;-79
2023/07/01 03:05:21;;;;;;;7.22;5.07;;;16.40;99.90;;;;;;5029454;28;20376;-80
2023/07/01 03:07:47;;;;;;;11.25;4.93;;;16.40;99.90;;;;;;5040911;28;20067;-80
2023/07/01 03:10:13;;;;;;;8.30;4.70;;;16.30;99.90;;;;;;5043853;28;20040;-79
2023/07/01 03:12:42;;;;;;;8.10;4.53;;;16.40;99.90;;;;;;5052066;28;20041;-80
2023/07/01 03:15:08;;;;;;;9.48;5.10;;;16.30;99.90;;;;;;5031248;28;20940;-80
2023/07/01 03:17:34;;;;;;;9.05;4.82;;;16.30;99.90;;;;;;5041217;28;20047;-80
2023/07/01 03:20:00;;;;;;;10.07;4.47;;;16.30;99.90;;;;;;5033128;28;20055;-80
2023/07/01 03:22:25;;;;;;;6.50;4.30;;;16.30;99.90;;;;;;5040865;28;20882;-79
2023/07/01 03:24:51;;;;;;;7.85;4.68;;;16.30;99.90;;;;;;5044005;28;20033;-80
2023/07/01 03:27:17;;;;;;;7.32;4.75;;;16.30;99.90;;;;;;5036317;28;20472;-80
2023/07/01 03:29:42;;;;;;;7.80;4.60;;;16.30;99.90;;;;;;5042518;28;20037;-79
2023/07/01 03:32:08;;;;;;;13.35;4.55;;;16.30;99.90;;;;;;5032236;28;20048;-79
2023/07/01 03:34:34;;;;;;;8.20;4.15;;;16.30;99.90;;;;;;5030249;28;20033;-80
2023/07/01 03:37:00;;;;;;;6.28;4.15;;;16.20;99.90;;;;;;5034904;28;20076;-81
2023/07/01 03:39:25;;;;;;;12.77;4.60;;;16.10;99.90;;;;;;5041810;28;20047;-80
2023/07/01 03:41:51;;;;;;;9.90;4.45;;;16.10;99.90;;;;;;5048172;28;20052;-80
2023/07/01 03:44:16;;;;;;;8.23;4.78;;;16.10;99.90;;;;;;5021323;28;20084;-80
2023/07/01 03:46:42;;;;;;;6.00;4.63;;;16.00;99.90;;;;;;5034832;28;20083;-80
2023/07/01 03:49:08;;;;;;;8.45;4.47;;;16.00;99.90;;;;;;5062787;28;20049;-80
2023/07/01 03:51:33;;;;;;;7.60;4.35;;;16.00;99.90;;;;;;5047678;28;20419;-79
2023/07/01 03:53:59;;;;;;;6.88;4.70;;;16.00;99.90;;;;;;5037775;28;20510;-79
2023/07/01 03:56:25;;;;;;;8.00;4.72;;;16.00;99.90;;;;;;5055678;28;20121;-80
2023/07/01 03:58:52;;;;;;;11.07;4.70;;;16.00;99.90;;;;;;5038063;28;20561;-80
2023/07/01 04:01:18;;;;;;;8.85;4.32;;;16.00;99.90;;;;;;5067964;28;20048;-80
2023/07/01 04:03:44;;;;;;;7.30;4.13;;;16.00;99.90;;;;;;5049277;28;20068;-80
2023/07/01 04:06:10;;;;;;;7.60;4.03;;;16.00;99.90;;;;;;5067559;28;20041;-80
2023/07/01 04:08:35;;;;;;;6.85;4.00;;;16.00;99.90;;;;;;5041261;28;20040;-80
2023/07/01 04:11:01;;;;;;;6.68;3.95;;;16.10;99.90;;;;;;5068277;28;20033;-80
2023/07/01 04:13:30;;;;;;;6.50;4.07;;;16.00;99.90;;;;;;5038286;28;20075;-79
2023/07/01 04:15:56;;;;;;;8.65;3.90;;;16.10;99.90;;;;;;5066385;28;20492;-80
2023/07/01 04:18:22;;;;;;;6.97;4.15;;;16.10;99.90;;;;;;5056382;28;20040;-80
2023/07/01 04:20:47;;;;;;;10.68;4.45;;;16.20;99.90;;;;;;5042821;28;20040;-80
2023/07/01 04:23:13;;;;;;;8.73;4.10;;;16.10;99.90;;;;;;5023014;28;20108;-80
2023/07/01 04:25:40;;;;;;;5.82;3.88;;;16.20;99.90;;;;;;5067950;28;20074;-80
2023/07/01 04:28:08;;;;;;;5.85;4.10;;;16.20;99.90;;;;;;5014038;28;20147;-79
2023/07/01 04:30:33;;;;;;;7.40;3.72;;;16.30;99.90;;;;;;5031149;28;20258;-80
2023/07/01 04:32:59;;;;;;;5.95;3.65;;;16.20;99.90;;;;;;5038412;28;20293;-80
2023/07/01 04:35:24;;;;;;;7.00;4.05;;;16.30;99.90;;;;;;5034059;28;20046;-79
2023/07/01 04:37:50;;;;;;;6.15;3.92;;;16.20;99.90;;;;;;5026750;28;20063;-79
2023/07/01 04:40:16;;;;;;;7.80;4.20;;;16.30;99.90;;;;;;5042450;28;20052;-79
2023/07/01 04:42:51;;;;;;;8.50;4.03;;;16.30;99.90;;;;;;5032448;28;20416;-79
2023/07/01 04:45:21;;;;;;;10.52;4.00;;;16.30;99.90;;;;;;5042515;28;20520;-80
2023/07/01 04:47:48;;;;;;;8.38;4.32;;;16.40;99.90;;;;;;5048067;28;20544;-79
2023/07/01 04:50:14;;;;;;;8.98;4.57;;;16.40;99.90;;;;;;5031283;28;20052;-79
2023/07/01 04:52:39;;;;;;;11.68;4.70;;;16.40;99.90;;;;;;5023033;28;20043;-79
2023/07/01 04:55:06;;;;;;;8.15;4.72;;;16.50;99.90;;;;;;5045168;28;20354;-80
2023/07/01 04:57:32;;;;;;;7.20;4.97;;;16.50;99.90;;;;;;5067335;28;20632;-79
2023/07/01 04:59:57;;;;;;;8.43;5.07;;;16.50;99.90;;;;;;5042409;28;20045;-79
2023/07/01 05:02:23;;;;;;;7.72;4.95;;;16.60;99.90;;;;;;5022927;28;20519;-79
2023/07/01 05:04:49;;;;;;;7.45;4.65;;;16.60;99.90;;;;;;5024912;28;20060;-80
2023/07/01 05:07:15;;;;;;;7.60;4.57;;;16.60;99.90;;;;;;5037060;28;20036;-79
2023/07/01 05:09:40;;;;;;;8.18;4.85;;;16.60;99.90;;;;;;5040108;28;20084;-79
2023/07/01 05:12:07;;;;;;;9.15;4.65;;;16.60;99.90;;;;;;5022390;28;20065;-79
2023/07/01 05:14:35;;;;;;;6.82;4.45;;;16.70;99.90;;;;;;5042149;28;20104;-79
2023/07/01 05:17:00;;;;;;;8.27;4.75;;;16.70;99.90;;;;;;5032407;28;20044;-79
2023/07/01 05:19:26;;;;;;;7.63;4.38;;;16.70;99.90;;;;;;5023151;28;20044;-79
2023/07/01 05:21:53;;;;;;;9.68;4.15;;;16.80;99.90;;;;;;5066210;28;20516;-79
2023/07/01 05:24:19;;;;;;;8.75;4.13;;;16.80;99.90;;;;;;5038999;28;20045;-79
2023/07/01 05:26:47;;;;;;;7.13;4.10;;;16.80;99.90;;;;;;5039626;28;20047;-79
2023/07/01 05:29:14;;;;;;;5.68;4.55;;;16.80;99.90;;;;;;5025866;28;20029;-79
2023/07/01 05:31:39;;;;;;;6.47;4.28;;;16.80;99.90;;;;;;5052986;28;20044;-80
2023/07/01 05:34:05;;;;;;;6.38;4.72;;;16.80;99.90;;;;;;5063447;28;20036;-79
2023/07/01 05:36:31;;;;;;;7.15;4.00;;;16.90;99.90;;;;;;5043556;28;20090;-79
2023/07/01 05:38:57;;;;;;;11.02;4.47;;;16.90;99.90;;;;;;5031919;28;20447;-79
2023/07/01 05:41:23;;;;;;;6.38;4.20;;;16.80;99.90;;;;;;5028302;28;20052;-80
2023/07/01 05:43:49;;;;;;;7.50;4.40;;;16.90;99.90;;;;;;5024180;28;20051;-80
2023/07/01 05:46:15;;;;;;;4.63;3.83;;;16.90;99.90;;;;;;5048002;28;20053;-80
2023/07/01 05:48:42;;;;;;;10.75;5.00;;;16.90;99.90;;;;;;5037003;28;20044;-79
2023/07/01 05:51:08;;;;;;;8.05;4.68;;;16.90;99.90;;;;;;5036250;28;20469;-79
2023/07/01 05:53:34;;;;;;;8.27;4.30;;;17.00;99.90;;;;;;5066286;28;20294;-80
2023/07/01 05:55:59;;;;;;;7.95;4.38;;;17.00;99.90;;;;;;5025486;28;20063;-80
2023/07/01 05:58:25;;;;;;;9.85;4.70;;;17.00;99.90;;;;;;5031315;28;20551;-79
2023/07/01 06:00:50;;;;;;;7.47;4.57;;;17.00;99.90;;;;;;5022063;28;20094;-79
2023/07/01 06:03:16;;;;;;;10.70;4.63;;;17.00;99.90;;;;;;5035904;28;20079;-80
2023/07/01 06:05:42;;;;;;;5.68;4.47;;;17.00;99.90;;;;;;5036255;28;20094;-79
2023/07/01 06:08:10;;;;;;;7.95;4.38;;;17.00;99.90;;;;;;5065854;28;20040;-80
2023/07/01 06:10:37;;;;;;;10.10;4.43;;;17.00;99.90;;;;;;5023195;28;20025;-79
2023/07/01 06:13:02;;;;;;;9.00;4.93;;;17.00;99.90;;;;;;5037394;28;20044;-79
2023/07/01 06:15:28;;;;;;;7.20;5.40;;;17.00;99.90;;;;;;5031695;28;20090;-80
2023/07/01 06:17:54;;;;;;;8.95;4.80;;;17.00;99.90;;;;;;5016243;28;20998;-79
2023/07/01 06:20:19;;;;;;;7.28;4.53;;;17.00;99.90;;;;;;5062022;28;20713;-79
2023/07/01 06:22:45;;;;;;;8.13;4.50;;;17.00;99.90;;;;;;5019584;28;20486;-80
2023/07/01 06:25:10;;;;;;;7.82;4.60;;;17.00;99.90;;;;;;5045756;28;20512;-80
2023/07/01 06:27:37;;;;;;;11.55;5.05;;;17.00;99.90;;;;;;5025331;28;20547;-81
2023/07/01 06:30:03;;;;;;;9.75;4.70;;;17.00;99.90;;;;;;5022589;28;20040;-81
2023/07/01 06:32:29;;;;;;;9.13;4.90;;;17.00;99.90;;;;;;5030991;28;20557;-81
2023/07/01 06:34:55;;;;;;;7.78;5.05;;;17.00;99.90;;;;;;5073611;28;20040;-81
2023/07/01 06:37:21;;;;;;;8.90;5.38;;;17.00;99.90;;;;;;5055690;28;20416;-82
2023/07/01 06:39:47;;;;;;;8.88;5.35;;;16.90;99.90;;;;;;5040799;28;20088;-83
2023/07/01 06:42:12;;;;;;;13.93;6.20;;;16.90;99.90;;;;;;5068019;28;20090;-83
2023/07/01 06:44:38;;;;;;;11.23;6.20;;;16.90;99.90;;;;;;5029358;28;20067;-81
2023/07/01 06:47:05;;;;;;;9.25;6.07;;;16.80;99.90;;;;;;5029031;28;20411;-81
2023/07/01 06:49:32;;;;;;;8.48;5.40;;;16.80;99.90;;;;;;5067821;28;20032;-81
2023/07/01 06:51:57;;;;;;;8.00;5.70;;;16.90;99.90;;;;;;5024364;28;20035;-80
2023/07/01 06:54:23;;;;;;;8.75;6.03;;;17.00;99.90;;;;;;5038854;28;20097;-80
2023/07/01 06:56:49;;;;;;;9.30;6.38;;;17.10;99.90;;;;;;5043571;28;20054;-80
2023/07/01 06:59:14;;;;;;;7.82;5.45;;;17.20;99.90;;;;;;5042084;28;20056;-80
2023/07/01 07:01:40;;;;;;;7.22;6.18;;;17.20;99.90;;;;;;5033368;28;20041;-80
2023/07/01 07:04:06;;;;;;;8.85;6.10;;;17.20;99.90;;;;;;5020877;28;20492;-80
2023/07/01 07:06:32;;;;;;;6.97;5.57;;;17.20;99.90;;;;;;5066142;28;20045;-80
2023/07/01 07:08:58;;;;;;;6.05;5.28;;;17.20;99.90;;;;;;5067960;28;20053;-80
2023/07/01 07:11:24;;;;;;;7.00;5.60;;;17.20;99.90;;;;;;5053569;28;20919;-80
2023/07/01 07:13:50;;;;;;;6.65;5.65;;;17.20;99.90;;;;;;5039700;28;20048;-80
2023/07/01 07:16:15;;;;;;;6.10;5.50;;;17.30;99.90;;;;;;5033700;28;20071;-80
2023/07/01 07:18:41;;;;;;;6.40;5.65;;;17.40;99.90;;;;;;5022951;28;20037;-80
2023/07/01 07:21:07;;;;;;;7.65;5.50;;;17.50;99.90;;;;;;5045758;28;20393;-80
2023/07/01 07:23:33;;;;;;;5.97;4.75;;;17.50;99.90;;;;;;5037916;28;20040;-80
2023/07/01 07:25:58;;;;;;;6.93;5.35;;;17.50;99.90;;;;;;5066216;28;20112;-79
2023/07/01 07:28:27;;;;;;;7.32;4.88;;;17.60;99.90;;;;;;5029209;28;20326;-79
2023/07/01 07:30:53;;;;;;;5.05;4.60;;;17.50;99.90;;;;;;5049472;28;20476;-80
2023/07/01 07:33:18;;;;;;;7.38;4.60;;;17.50;99.90;;;;;;5028448;28;20046;-79
2023/07/01 07:35:44;;;;;;;6.05;4.95;;;17.40;99.90;;;;;;5070148;28;20088;-80
2023/07/01 07:38:10;;;;;;;5.28;4.53;;;17.40;99.90;;;;;;5030649;28;20041;-79
2023/07/01 07:40:36;;;;;;;5.57;4.43;;;17.60;99.90;;;;;;5070029;28;20079;-79
2023/07/01 07:43:09;;;;;;;6.95;5.10;;;17.50;99.90;;;;;;5035351;28;20045;-79
2023/07/01 07:45:35;;;;;;;5.85;4.70;;;17.70;99.90;;;;;;5047252;28;20060;-79
2023/07/01 07:48:01;;;;;;;7.28;4.50;;;17.70;99.90;;;;;;5070237;28;20345;-79
2023/07/01 07:50:26;;;;;;;5.25;4.75;;;17.60;99.90;;;;;;5053408;28;20376;-79
2023/07/01 07:52:52;;;;;;;5.68;4.85;;;17.60;99.90;;;;;;5044311;28;20036;-79
2023/07/01 07:55:18;;;;;;;5.38;4.40;;;17.70;99.90;;;;;;5071020;28;20024;-79
2023/07/01 07:57:44;;;;;;;5.05;4.45;;;17.80;99.90;;;;;;5018903;28;20139;-80
2023/07/01 08:00:10;;;;;;;4.93;4.43;;;17.80;99.90;;;;;;5027635;28;20084;-80
2023/07/01 08:02:42;;;;;;;4.93;4.43;;;17.80;99.90;;;;;;5022069;28;20413;-80
2023/07/01 08:05:08;;;;;;;6.45;4.95;;;17.80;99.90;;;;;;5024304;28;20374;-79
2023/07/01 08:07:33;;;;;;;5.82;5.00;;;17.60;99.90;;;;;;5039211;28;20040;-79
2023/07/01 08:09:59;;;;;;;6.10;4.72;;;17.80;99.90;;;;;;5042620;28;20365;-79
2023/07/01 08:12:24;;;;;;;5.60;4.53;;;17.70;99.90;;;;;;5034345;28;20461;-79
2023/07/01 08:14:50;;;;;;;6.10;5.00;;;17.90;99.90;;;;;;5026037;28;20484;-79
2023/07/01 08:17:16;;;;;;;5.60;4.93;;;17.90;99.90;;;;;;5038137;28;20076;-79
2023/07/01 08:19:43;;;;;;;6.18;5.07;;;18.00;99.90;;;;;;5027631;28;20147;-79
2023/07/01 08:22:09;;;;;;;6.70;5.38;;;18.00;99.90;;;;;;5049119;28;20056;-79
2023/07/01 08:24:34;;;;;;;7.13;5.30;;;18.00;99.90;;;;;;5066560;28;20044;-79
2023/07/01 08:27:00;;;;;;;5.82;4.90;;;18.00;99.90;;;;;;5045539;28;20131;-79
2023/07/01 08:29:26;;;;;;;6.50;5.80;;;18.20;99.90;;;;;;5039722;28;20121;-80
2023/07/01 08:31:52;;;;;;;5.63;5.03;;;18.20;99.90;;;;;;5065636;28;20036;-79
2023/07/01 08:34:18;;;;;;;6.93;5.07;;;18.20;99.90;;;;;;5048237;28;20052;-79
2023/07/01 08:36:44;;;;;;;7.00;4.88;;;18.30;99.90;;;;;;5051710;28;20044;-79
2023/07/01 08:39:09;;;;;;;6.78;4.97;;;18.20;99.90;;;;;;5027118;28;20056;-79
2023/07/01 08:41:45;;;;;;;5.95;5.35;;;18.30;99.90;;;;;;5037343;28;20061;-79
2023/07/01 08:44:11;;;;;;;5.57;4.80;;;18.40;99.90;;;;;;5060844;28;20408;-79
2023/07/01 08:46:39;;;;;;;6.18;5.07;;;18.40;99.90;;;;;;5025887;28;20072;-80
2023/07/01 08:49:06;;;;;;;8.57;4.90;;;18.40;99.90;;;;;;5067945;28;20150;-79
2023/07/01 08:51:37;;;;;;;4.80;4.30;;;18.30;99.90;;;;;;5026926;28;20115;-80
2023/07/01 08:54:04;;;;;;;6.85;5.03;;;18.50;99.90;;;;;;5028664;28;20471;-79
2023/07/01 08:56:30;;;;;;;5.57;4.80;;;18.50;99.90;;;;;;5043356;28;20189;-80
2023/07/01 08:58:56;;;;;;;5.25;4.53;;;18.30;99.90;;;;;;5050469;28;20526;-80
2023/07/01 09:01:22;;;;;;;4.95;4.35;;;18.50;99.90;;;;;;5040105;28;20497;-81
2023/07/01 09:03:51;;;;;;;4.78;4.28;;;18.70;99.90;;;;;;5063655;28;20064;-81
2023/07/01 09:06:20;;;;;;;5.18;4.40;;;18.60;99.90;;;;;;5031293;28;20056;-81
2023/07/01 09:08:46;;;;;;;5.25;4.60;;;18.60;99.90;;;;;;5038510;28;20105;-81
2023/07/01 09:11:14;;;;;;;5.55;5.05;;;18.40;99.90;;;;;;5028779;28;20032;-81
2023/07/01 09:13:40;;;;;;;5.05;4.53;;;18.40;99.90;;;;;;5043752;28;20036;-81
2023/07/01 09:16:06;;;;;;;5.18;4.68;;;18.60;99.90;;;;;;5022693;28;20052;-80
2023/07/01 09:18:33;;;;;;;5.10;4.63;;;18.80;99.90;;;;;;5031272;28;20045;-80
2023/07/01 09:20:59;;;;;;;6.65;4.78;;;19.10;99.90;;;;;;5045305;28;20083;-80
2023/07/01 09:23:40;;;;;;;5.88;4.65;;;19.20;99.90;;;;;;5026555;28;20155;-81
2023/07/01 09:26:08;;;;;;;5.50;4.70;;;19.10;99.90;;;;;;5041757;28;20047;-80
2023/07/01 09:28:35;;;;;;;5.22;4.72;;;19.20;99.90;;;;;;5046464;28;20040;-80
2023/07/01 09:31:06;;;;;;;6.53;4.78;;;19.20;99.90;;;;;;5020198;28;20067;-81
2023/07/01 09:33:34;;;;;;;5.38;4.47;;;19.20;99.90;;;;;;5039989;28;20492;-81
2023/07/01 09:36:03;;;;;;;5.45;4.88;;;19.20;99.90;;;;;;5042168;28;20051;-80
2023/07/01 09:38:34;;;;;;;5.63;5.00;;;19.10;99.90;;;;;;5042386;28;20071;-80
2023/07/01 09:41:13;;;;;;;5.15;4.65;;;19.10;99.90;;;;;;5042554;28;20044;-80
2023/07/01 09:43:40;;;;;;;5.10;4.60;;;19.40;99.90;;;;;;5040253;28;20055;-80
2023/07/01 09:46:07;;;;;;;5.75;5.15;;;19.20;99.90;;;;;;5025985;28;20036;-80
2023/07/01 09:48:33;;;;;;;4.97;4.40;;;19.20;99.90;;;;;;5067565;28;20048;-80
2023/07/01 09:51:06;;;;;;;5.18;4.57;;;19.20;99.90;;;;;;5038881;28;20044;-80
2023/07/01 09:53:33;;;;;;;5.47;4.30;;;19.40;99.90;;;;;;5067258;28;20068;-80
2023/07/01 09:56:04;;;;;;;4.75;4.25;;;19.20;99.90;;;;;;5025948;28;20453;-80
2023/07/01 09:58:33;;;;;;;4.40;4.00;;;19.20;99.90;;;;;;5044991;28;20024;-81
2023/07/01 10:01:02;;;;;;;4.07;3.70;;;19.20;99.90;;;;;;5030329;28;20052;-80
2023/07/01 10:03:29;;;;;;;4.82;4.25;;;19.30;99.90;;;;;;5027108;28;20044;-80
2023/07/01 10:05:55;;;;;;;4.60;4.20;;;19.50;99.90;;;;;;5046257;28;20049;-81
2023/07/01 10:08:22;;;;;;;4.22;3.83;;;19.60;99.90;;;;;;5068449;28;20523;-81
2023/07/01 10:11:13;;;;;;;4.60;4.20;;;20.00;99.90;;;;;;5029710;28;20495;-81
2023/07/01 10:13:46;;;;;;;4.40;4.00;;;20.10;99.90;;;;;;5071900;28;20036;-82
2023/07/01 10:16:13;;;;;;;4.03;3.63;;;20.10;99.90;;;;;;5044100;28;20584;-82
2023/07/01 10:18:38;;;;;;;4.53;4.10;;;20.00;99.90;;;;;;5025650;28;20065;-81
2023/07/01 10:21:31;;;;;;;3.92;3.45;;;20.10;99.90;;;;;;5024665;28;20095;-81
2023/07/01 10:24:00;;;;;;;4.10;3.50;;;19.70;99.90;;;;;;5067665;28;20162;-82
2023/07/01 10:26:39;;;;;;;3.92;3.53;;;19.80;99.90;;;;;;5067195;28;20036;-81
2023/07/01 10:29:37;;;;;;;3.80;3.50;;;19.80;99.90;;;;;;5071583;28;20036;-81
2023/07/01 10:32:09;;;;;;;3.92;3.35;;;19.80;99.90;;;;;;5068189;28;20519;-82
2023/07/01 10:34:53;;;;;;;3.78;3.25;;;20.00;99.90;;;;;;5068666;28;20073;-82
2023/07/01 10:37:20;;;;;;;3.53;3.22;;;20.00;99.90;;;;;;5042609;28;20318;-81
2023/07/01 10:39:45;;;;;;;3.25;2.92;;;20.00;99.90;;;;;;5070808;28;20062;-82
2023/07/01 10:42:31;;;;;;;3.55;2.72;;;20.10;99.90;;;;;;5053371;28;20143;-81
2023/07/01 10:45:17;;;;;;;3.20;2.90;;;20.00;99.90;;;;;;5069160;28;20053;-81
2023/07/01 10:47:48;;;;;;;2.60;2.33;;;20.20;99.90;;;;;;5050641;28;20045;-81
2023/07/01 10:50:15;;;;;;;3.58;2.47;;;20.30;99.90;;;;;;5069657;28;20562;-81
2023/07/01 10:52:57;;;;;;;2.60;2.40;;;20.50;99.90;;;;;;5025172;28;20039;-81
2023/07/01 10:55:49;;;;;;;2.33;1.90;;;20.60;99.90;;;;;;5070848;28;20480;-81
2023/07/01 10:58:26;;;;;;;2.33;2.00;;;20.50;99.90;;;;;;5025620;28;20052;-82
2023/07/01 11:00:56;;;;;;;1.92;1.50;;;20.40;99.90;;;;;;5052454;28;20790;-81
2023/07/01 11:03:34;;;;;;;2.92;1.88;;;20.10;99.90;;;;;;5026714;28;20556;-81
2023/07/01 11:06:08;;;;;;;4.20;1.90;;;20.00;99.90;;;;;;5044997;28;20054;-82
2023/07/01 11:08:44;;;;;;;1.98;1.77;;;19.90;99.90;;;;;;5068762;28;20051;-81
2023/07/01 11:11:10;;;;;;;2.78;1.58;;;20.00;99.90;;;;;;5038505;28;20512;-81
2023/07/01 11:13:36;;;;;;;2.05;1.52;;;20.00;99.90;;;;;;5052276;28;20506;-81
2023/07/01 11:16:03;;;;;;;1.58;1.48;;;19.70;99.90;;;;;;5019612;28;20045;-82
2023/07/01 11:18:50;;;;;;;1.83;1.40;;;20.00;99.90;;;;;;5035170;28;20094;-82
2023/07/01 11:21:21;;;;;;;1.55;1.30;;;19.90;99.90;;;;;;5066515;28;20045;-81
2023/07/01 11:24:03;;;;;;;1.38;1.10;;;20.00;99.90;;;;;;5042181;28;20040;-81
2023/07/01 11:26:39;;;;;;;1.73;0.88;;;19.70;99.90;;;;;;5025863;28;20045;-81
2023/07/01 11:29:10;;;;;;;1.58;1.10;;;19.80;99.90;;;;;;5030630;28;20167;-80
2023/07/01 11:31:39;;;;;;;1.10;1.00;;;19.80;99.90;;;;;;5023461;28;20079;-81
2023/07/01 11:34:05;;;;;;;1.00;0.90;;;20.00;99.90;;;;;;5062121;28;20040;-81
2023/07/01 11:36:39;;;;;;;1.73;1.17;;;19.80;99.90;;;;;;5036569;28;20087;-81
2023/07/01 11:39:10;;;;;;;3.42;1.40;;;20.10;99.90;;;;;;5053789;28;20545;-81
2023/07/01 11:41:37;;;;;;;2.65;1.40;;;20.20;99.90;;;;;;5050391;28;20468;-82
2023/07/01 11:44:06;;;;;;;4.63;1.60;;;20.00;99.90;;;;;;5029425;28;20105;-82
2023/07/01 11:46:37;;;;;;;2.22;1.55;;;19.80;99.90;;;;;;5024319;28;20067;-81
2023/07/01 11:49:30;;;;;;;1.80;1.40;;;19.80;99.90;;;;;;5023698;28;20400;-81
2023/07/01 11:51:59;;;;;;;3.13;1.50;;;20.30;99.90;;;;;;5022683;28;20059;-81
2023/07/01 11:54:47;;;;;;;1.88;1.23;;;21.00;99.90;;;;;;5026975;28;20455;-81
2023/07/01 11:57:20;;;;;;;1.88;1.67;;;21.50;99.90;;;;;;5043739;28;20150;-81
2023/07/01 11:59:58;;;;;;;2.10;1.80;;;21.50;99.90;;;;;;5025847;28;20048;-81
2023/07/01 12:02:31;;;;;;;3.65;2.42;;;21.80;99.90;;;;;;5052689;28;20082;-81
2023/07/01 12:04:58;;;;;;;2.95;2.45;;;21.90;99.90;;;;;;5027437;28;20166;-80
2023/07/01 12:07:23;;;;;;;3.10;2.70;;;22.10;99.90;;;;;;5021270;28;20044;-80
2023/07/01 12:09:50;;;;;;;3.50;3.20;;;22.00;99.90;;;;;;5021531;28;20436;-81
2023/07/01 12:12:36;;;;;;;4.85;3.30;;;22.00;99.90;;;;;;5027657;28;20134;-80
2023/07/01 12:15:03;;;;;;;3.88;3.47;;;22.00;99.90;;;;;;5058266;28;20131;-81
2023/07/01 12:17:32;;;;;;;5.55;3.58;;;22.10;99.90;;;;;;5029288;28;20044;-80
2023/07/01 12:20:01;;;;;;;3.88;3.40;;;21.90;99.90;;;;;;5020539;28;20473;-80
2023/07/01 12:22:28;;;;;;;4.00;3.55;;;22.00;99.90;;;;;;5024548;28;20044;-80
2023/07/01 12:24:55;;;;;;;3.70;3.40;;;22.00;99.90;;;;;;5039884;28;20040;-80
2023/07/01 12:27:20;;;;;;;4.47;4.03;;;21.90;99.90;;;;;;5064099;28;20032;-81
2023/07/01 12:29:46;;;;;;;5.30;4.15;;;21.90;99.90;;;;;;5025605;28;20040;-81
2023/07/01 12:32:12;;;;;;;5.80;3.85;;;21.50;99.90;;;;;;5035486;28;20708;-80
2023/07/01 12:34:38;;;;;;;5.97;3.97;;;21.30;99.90;;;;;;5062849;28;20368;-81
2023/07/01 12:37:06;;;;;;;5.07;4.38;;;21.40;99.90;;;;;;5025580;28;20097;-80
2023/07/01 12:39:32;;;;;;;6.38;4.60;;;21.90;99.90;;;;;;5024257;28;20071;-81
2023/07/01 12:42:07;;;;;;;5.30;4.70;;;21.50;99.90;;;;;;5054770;27;20481;-81
2023/07/01 12:44:32;;;;;;;6.50;5.10;;;21.20;99.90;;;;;;5065708;28;20203;-81
2023/07/01 12:46:58;;;;;;;7.05;5.10;;;21.10;99.90;;;;;;5024567;28;20045;-80
2023/07/01 12:49:24;;;;;;;7.78;4.28;;;21.10;99.90;;;;;;5036060;28;20457;-81
2023/07/01 12:51:49;;;;;;;7.80;4.65;;;21.00;99.90;;;;;;5037385;28;20037;-81